Time;durP1;ratioP1;P1;durP2;ratioP2;P2;SDS_P1;SDS_P2;PMS_P1;PMS_P2;Temp;Humidity;BMP_temperature;BMP_pressure;BME280_temperature;BME280_humidity;BME280_pressure;Samples;Min_cycle;Max_cycle;Signal;HPM_P1;HPM_P2
2023/08/23 00:00:44;;;;;;;77.80;5.83;;;;;;;26.78;56.81;99722.09;7305374;19;131787;-38
2023/08/23 00:03:10;;;;;;;80.40;6.07;;;;;;;26.84;56.90;99738.06;7307038;19;128944;-37
2023/08/23 00:05:35;;;;;;;91.23;6.67;;;;;;;26.83;56.87;99741.69;7302033;19;130203;-36
2023/08/23 00:08:00;;;;;;;72.50;5.20;;;;;;;26.82;57.20;99745.31;7305597;19;131395;-37
2023/08/23 00:10:26;;;;;;;72.70;5.30;;;;;;;26.82;57.39;99742.69;7306809;19;131035;-36
2023/08/23 00:12:53;;;;;;;64.27;4.67;;;;;;;26.80;57.19;99747.31;7306722;19;129225;-37
2023/08/23 00:15:19;;;;;;;79.57;5.57;;;;;;;26.79;57.07;99735.09;7306603;19;129805;-37
2023/08/23 00:17:44;;;;;;;76.00;5.70;;;;;;;26.81;56.45;99741.03;7306866;19;129524;-36
2023/08/23 00:20:10;;;;;;;98.30;6.67;;;;;;;26.83;57.17;99736.44;7306706;19;129542;-36
2023/08/23 00:22:35;;;;;;;66.78;5.18;;;;;;;26.82;57.01;99737.41;7305994;19;129020;-36
2023/08/23 00:25:01;;;;;;;49.37;4.20;;;;;;;26.80;56.48;99742.03;7305214;19;129486;-37
2023/08/23 00:27:26;;;;;;;60.50;4.50;;;;;;;26.81;56.80;99737.56;7306967;19;129632;-37
2023/08/23 00:29:52;;;;;;;71.20;5.13;;;;;;;26.79;56.54;99740.38;7307039;19;130655;-38
2023/08/23 00:32:17;;;;;;;166.97;10.80;;;;;;;26.81;57.01;99733.13;7304149;19;129970;-36
2023/08/23 00:34:43;;;;;;;93.87;6.70;;;;;;;26.73;56.23;99725.25;7305997;19;129871;-37
2023/08/23 00:37:08;;;;;;;99.73;7.10;;;;;;;26.82;56.62;99739.25;7304912;19;129474;-36
2023/08/23 00:39:33;;;;;;;75.53;5.93;;;;;;;26.80;57.44;99728.84;7307148;19;130660;-37
2023/08/23 00:41:59;;;;;;;71.97;5.37;;;;;;;26.78;56.68;99728.19;7305589;19;130847;-37
2023/08/23 00:44:24;;;;;;;59.97;4.80;;;;;;;26.77;56.97;99721.28;7304962;19;129595;-36
2023/08/23 00:46:50;;;;;;;82.50;5.70;;;;;;;26.80;57.17;99730.66;7306164;19;129939;-37
2023/08/23 00:49:15;;;;;;;87.53;6.17;;;;;;;26.80;56.92;99726.22;7307247;19;129727;-37
2023/08/23 00:51:41;;;;;;;68.57;5.33;;;;;;;26.78;57.30;99728.19;7304570;19;129081;-37
2023/08/23 00:54:06;;;;;;;70.57;5.60;;;;;;;26.76;57.33;99724.06;7306036;19;129420;-36
2023/08/23 00:56:33;;;;;;;82.63;5.67;;;;;;;26.78;57.10;99730.84;7305935;19;130126;-37
2023/08/23 00:58:59;;;;;;;85.90;6.15;;;;;;;26.80;56.81;99731.50;7306454;19;129681;-37
2023/08/23 01:01:24;;;;;;;61.23;4.87;;;;;;;26.70;56.41;99720.31;7306261;19;129013;-36
2023/08/23 01:03:50;;;;;;;85.13;6.30;;;;;;;26.80;56.73;99735.94;7305003;19;131252;-36
2023/08/23 01:06:49;;;;;;;76.83;5.57;;;;;;;26.78;59.17;99727.38;7303018;19;130493;-40
2023/08/23 01:09:24;;;;;;;97.45;7.15;;;;;;;26.78;57.86;99727.38;7304694;19;129236;-37
2023/08/23 01:12:19;;;;;;;93.68;6.60;;;;;;;26.78;59.39;99733.47;7303120;19;129402;-37
2023/08/23 01:14:47;;;;;;;86.63;6.25;;;;;;;26.79;58.06;99731.66;7304236;19;129643;-37
2023/08/23 01:17:15;;;;;;;79.85;5.35;;;;;;;26.80;56.89;99728.84;7304313;19;130281;-37
2023/08/23 01:19:43;;;;;;;65.45;5.38;;;;;;;26.79;56.68;99734.31;7305794;19;129791;-37
2023/08/23 01:22:12;;;;;;;79.18;5.72;;;;;;;26.78;56.65;99736.09;7302583;19;129803;-37
2023/08/23 01:24:38;;;;;;;78.35;5.95;;;;;;;26.77;56.74;99731.84;7303408;19;129482;-36
2023/08/23 01:27:03;;;;;;;108.27;7.13;;;;;;;26.77;56.90;99731.84;7304157;19;130015;-37
2023/08/23 01:29:29;;;;;;;55.80;4.70;;;;;;;26.78;56.59;99738.75;7305441;19;129170;-37
2023/08/23 01:31:59;;;;;;;76.73;5.70;;;;;;;26.71;57.41;99716.66;7302767;19;129587;-36
2023/08/23 01:34:31;;;;;;;79.30;5.40;;;;;;;26.76;57.87;99739.91;7303648;19;130984;-37
2023/08/23 01:37:00;;;;;;;89.90;5.90;;;;;;;26.76;57.21;99735.44;7304151;19;130652;-37
2023/08/23 01:39:25;;;;;;;97.25;6.80;;;;;;;26.76;56.78;99734.63;7305187;19;129725;-37
2023/08/23 01:41:51;;;;;;;47.63;3.83;;;;;;;26.76;57.24;99735.44;7302582;19;129283;-37
2023/08/23 01:44:16;;;;;;;60.03;4.67;;;;;;;26.70;57.08;99724.75;7303254;19;129012;-37
2023/08/23 01:46:42;;;;;;;78.10;5.73;;;;;;;26.77;56.85;99736.28;7304939;19;129320;-36
2023/08/23 01:49:07;;;;;;;84.67;6.17;;;;;;;26.76;57.28;99730.19;7304948;19;129418;-36
2023/08/23 01:51:33;;;;;;;52.50;4.47;;;;;;;26.75;56.62;99733.81;7303195;19;130233;-37
2023/08/23 01:53:58;;;;;;;71.60;5.40;;;;;;;26.74;57.41;99734.78;7302481;19;128966;-37
2023/08/23 01:56:23;;;;;;;83.93;6.03;;;;;;;26.75;56.97;99739.09;7304162;19;130054;-37
2023/08/23 01:58:49;;;;;;;65.77;5.43;;;;;;;26.64;57.30;99731.47;7304164;19;129129;-36
2023/08/23 02:01:14;;;;;;;83.27;6.23;;;;;;;26.75;57.48;99739.09;7303061;19;129416;-37
2023/08/23 02:03:39;;;;;;;73.53;5.53;;;;;;;26.68;57.09;99727.56;7303562;19;129772;-37
2023/08/23 02:06:05;;;;;;;88.47;6.10;;;;;;;26.76;56.86;99742.53;7301136;19;129328;-36
2023/08/23 02:08:30;;;;;;;83.23;6.00;;;;;;;26.74;56.84;99737.44;7303685;19;130256;-37
2023/08/23 02:10:55;;;;;;;49.23;4.37;;;;;;;26.75;56.39;99739.09;7301151;19;129011;-36
2023/08/23 02:13:21;;;;;;;94.00;6.33;;;;;;;26.74;56.80;99745.34;7302661;19;129226;-35
2023/08/23 02:15:47;;;;;;;63.60;4.90;;;;;;;26.73;56.79;99741.06;7304385;19;129324;-37
2023/08/23 02:18:12;;;;;;;75.90;5.07;;;;;;;26.74;56.91;99732.16;7304086;19;131119;-37
2023/08/23 02:20:38;;;;;;;47.33;4.33;;;;;;;26.73;56.93;99735.78;7304529;19;129239;-36
2023/08/23 02:23:03;;;;;;;92.97;6.37;;;;;;;26.73;57.22;99738.44;7308946;19;129676;-37
2023/08/23 02:25:28;;;;;;;54.87;4.43;;;;;;;26.73;56.93;99734.97;7308631;19;130751;-37
2023/08/23 02:27:54;;;;;;;48.70;3.93;;;;;;;26.62;56.56;99728.22;7309699;19;130468;-37
2023/08/23 02:30:19;;;;;;;78.00;5.70;;;;;;;26.74;56.69;99744.53;7310055;19;128934;-36
2023/08/23 02:32:44;;;;;;;69.00;5.13;;;;;;;26.66;56.86;99729.53;7309486;19;129487;-37
2023/08/23 02:35:10;;;;;;;99.30;6.93;;;;;;;26.68;57.08;99729.38;7309675;19;130207;-36
2023/08/23 02:37:35;;;;;;;65.23;5.33;;;;;;;26.73;56.85;99735.78;7310266;19;129713;-37
2023/08/23 02:40:01;;;;;;;87.07;6.13;;;;;;;26.64;56.80;99720.94;7310066;19;129326;-36
2023/08/23 02:42:26;;;;;;;152.57;10.40;;;;;;;26.71;56.63;99739.56;7308716;19;130129;-38
2023/08/23 02:44:52;;;;;;;62.93;5.00;;;;;;;26.71;57.00;99735.13;7308774;19;130114;-36
2023/08/23 02:47:17;;;;;;;68.43;5.33;;;;;;;26.71;57.71;99731.66;7309305;19;131169;-35
2023/08/23 02:49:42;;;;;;;75.07;5.33;;;;;;;26.72;57.21;99728.88;7309717;19;129083;-37
2023/08/23 02:52:08;;;;;;;76.87;6.10;;;;;;;26.73;57.59;99725.25;7308650;19;129301;-40
2023/08/23 02:54:33;;;;;;;59.57;4.63;;;;;;;26.73;57.45;99725.25;7308197;19;129660;-38
2023/08/23 02:56:58;;;;;;;79.67;5.70;;;;;;;26.71;57.32;99732.50;7303328;19;129904;-36
2023/08/23 02:59:24;;;;;;;94.53;6.73;;;;;;;26.71;57.27;99727.22;7309705;19;129577;-37
2023/08/23 03:01:49;;;;;;;51.83;4.57;;;;;;;26.73;56.86;99730.53;7307907;19;131010;-41
2023/08/23 03:04:14;;;;;;;94.47;6.23;;;;;;;26.72;57.20;99725.41;7307780;19;130695;-37
2023/08/23 03:06:40;;;;;;;93.40;6.67;;;;;;;26.68;56.93;99727.56;7308276;19;131997;-37
2023/08/23 03:09:05;;;;;;;85.37;6.17;;;;;;;26.69;57.08;99723.91;7308602;19;129153;-36
2023/08/23 03:11:30;;;;;;;66.20;4.87;;;;;;;26.71;56.56;99727.22;7303221;19;129442;-36
2023/08/23 03:13:57;;;;;;;77.80;5.60;;;;;;;26.71;56.81;99727.22;7308682;19;129790;-36
2023/08/23 03:16:22;;;;;;;65.38;5.22;;;;;;;26.70;57.07;99725.59;7308848;19;133307;-38
2023/08/23 03:18:47;;;;;;;73.77;5.40;;;;;;;26.64;57.05;99709.59;7304452;19;129300;-37
2023/08/23 03:21:13;;;;;;;90.67;6.53;;;;;;;26.68;56.99;99722.28;7307005;19;129670;-37
2023/08/23 03:23:39;;;;;;;67.43;4.90;;;;;;;26.70;57.25;99716.84;7308487;19;129757;-38
2023/08/23 03:26:07;;;;;;;196.10;12.38;;;;;;;26.69;57.44;99723.13;7301888;19;130395;-36
2023/08/23 03:28:32;;;;;;;88.25;6.22;;;;;;;26.63;57.13;99714.03;7307396;19;129881;-38
2023/08/23 03:31:04;;;;;;;55.53;4.83;;;;;;;26.68;58.28;99724.94;7307382;19;129458;-36
2023/08/23 03:33:30;;;;;;;40.97;3.95;;;;;;;26.71;57.38;99721.13;7312156;19;129005;-36
2023/08/23 03:35:55;;;;;;;128.73;8.47;;;;;;;26.70;56.89;99720.31;7310437;19;129506;-36
2023/08/23 03:38:21;;;;;;;61.37;4.80;;;;;;;26.70;57.20;99720.31;7310992;19;130969;-35
2023/08/23 03:40:46;;;;;;;85.93;6.10;;;;;;;26.69;57.22;99729.19;7312238;19;128977;-37
2023/08/23 03:43:11;;;;;;;50.77;4.50;;;;;;;26.70;56.96;99719.47;7312299;19;129225;-36
2023/08/23 03:45:36;;;;;;;73.20;5.37;;;;;;;26.70;57.23;99724.75;7310683;19;129715;-38
2023/08/23 03:48:02;;;;;;;87.93;6.23;;;;;;;26.70;56.27;99725.59;7309079;19;128959;-42
2023/08/23 03:50:28;;;;;;;64.20;5.40;;;;;;;26.65;56.94;99724.41;7312102;19;129354;-38
2023/08/23 03:52:53;;;;;;;70.20;5.17;;;;;;;26.69;56.92;99729.19;7311640;19;129019;-37
2023/08/23 03:55:19;;;;;;;56.43;4.60;;;;;;;26.65;56.47;99727.91;7312387;19;130354;-37
2023/08/23 03:57:44;;;;;;;87.37;6.13;;;;;;;26.65;56.69;99727.03;7310580;19;129191;-35
2023/08/23 04:00:10;;;;;;;90.37;6.20;;;;;;;26.55;56.46;99716.69;7311912;19;129851;-38
2023/08/23 04:02:36;;;;;;;69.57;5.65;;;;;;;26.63;56.36;99740.41;7300249;19;130188;-37
2023/08/23 04:05:05;;;;;;;122.87;8.00;;;;;;;26.55;56.69;99718.50;7306963;19;130443;-34
2023/08/23 04:07:31;;;;;;;54.88;4.82;;;;;;;26.62;56.40;99738.78;7309948;19;128932;-37
2023/08/23 04:09:56;;;;;;;88.47;6.10;;;;;;;26.61;56.27;99737.09;7310369;19;129057;-37
2023/08/23 04:12:21;;;;;;;64.43;5.40;;;;;;;26.62;56.31;99738.78;7305236;19;130990;-38
2023/08/23 04:14:47;;;;;;;109.97;7.33;;;;;;;26.63;56.40;99742.22;7304733;19;130269;-36
2023/08/23 04:17:12;;;;;;;136.30;8.47;;;;;;;26.61;56.52;99736.31;7301969;19;129566;-36
2023/08/23 04:19:37;;;;;;;64.37;5.17;;;;;;;26.63;55.83;99737.75;7306984;19;129380;-37
2023/08/23 04:22:03;;;;;;;109.90;7.33;;;;;;;26.59;56.02;99735.63;7300144;19;129311;-38
2023/08/23 04:24:28;;;;;;;67.53;5.20;;;;;;;26.64;55.82;99742.03;7302803;19;129272;-39
2023/08/23 04:26:53;;;;;;;57.10;4.80;;;;;;;26.64;56.10;99752.59;7304456;19;129375;-38
2023/08/23 04:29:19;;;;;;;60.87;5.10;;;;;;;26.63;56.09;99750.94;7306276;19;129024;-38
2023/08/23 04:31:44;;;;;;;89.07;6.53;;;;;;;26.64;56.28;99749.94;7304335;19;129697;-38
2023/08/23 04:34:09;;;;;;;111.17;7.87;;;;;;;26.62;55.89;99749.31;7303591;19;129561;-35
2023/08/23 04:36:35;;;;;;;58.30;5.23;;;;;;;26.62;55.85;99751.97;7307531;19;129334;-36
2023/08/23 04:39:00;;;;;;;120.63;7.80;;;;;;;26.63;55.70;99756.22;7305113;19;129438;-35
2023/08/23 04:41:25;;;;;;;70.53;5.03;;;;;;;26.62;56.17;99759.03;7303223;19;129994;-37
2023/08/23 04:43:51;;;;;;;52.40;4.87;;;;;;;26.58;56.26;99752.44;7301795;19;129137;-37
2023/08/23 04:46:16;;;;;;;67.40;5.20;;;;;;;26.62;55.89;99748.50;7307760;19;129373;-39
2023/08/23 04:48:42;;;;;;;65.33;5.43;;;;;;;26.53;55.86;99739.75;7312905;19;129247;-38
2023/08/23 04:51:09;;;;;;;112.93;7.67;;;;;;;26.59;56.14;99756.75;7308613;19;130111;-35
2023/08/23 04:53:35;;;;;;;69.75;5.45;;;;;;;26.59;55.63;99747.00;7306759;19;131155;-36
2023/08/23 04:56:00;;;;;;;139.20;8.93;;;;;;;26.60;55.43;99746.03;7299596;19;129992;-38
2023/08/23 04:58:30;;;;;;;56.13;4.67;;;;;;;26.60;56.12;99755.75;7301968;19;129492;-37
2023/08/23 05:01:04;;;;;;;87.47;6.32;;;;;;;26.59;57.23;99752.28;7302773;19;130331;-39
2023/08/23 05:03:34;;;;;;;81.72;6.32;;;;;;;26.59;56.34;99749.63;7303838;19;130949;-38
2023/08/23 05:06:01;;;;;;;96.20;6.65;;;;;;;26.61;55.64;99752.94;7301465;19;129290;-37
2023/08/23 05:08:27;;;;;;;;;;;;;;;26.57;58.18;99754.28;7303707;19;129971;-39
2023/08/23 05:10:53;;;;;;;90.15;6.57;;;;;;;26.56;56.47;99757.09;7291510;19;130615;-36
2023/08/23 05:13:19;;;;;;;68.20;5.50;;;;;;;26.54;55.64;99753.78;7303495;19;130289;-38
2023/08/23 05:15:50;;;;;;;75.70;6.18;;;;;;;26.51;55.53;99749.66;7305930;19;128979;-39
2023/08/23 05:18:15;;;;;;;65.28;5.50;;;;;;;26.44;55.55;99740.78;7308532;19;128982;-38
2023/08/23 05:20:41;;;;;;;81.27;5.87;;;;;;;26.52;55.67;99753.94;7303851;19;129839;-35
2023/08/23 05:23:06;;;;;;;82.63;5.93;;;;;;;26.53;55.65;99750.31;7306763;19;129800;-36
2023/08/23 05:25:31;;;;;;;74.30;5.93;;;;;;;26.52;56.19;99753.94;7304680;19;129335;-37
2023/08/23 05:27:57;;;;;;;77.40;5.77;;;;;;;26.53;55.85;99755.59;7304783;19;130967;-37
2023/08/23 05:30:22;;;;;;;51.13;4.50;;;;;;;26.52;56.10;99755.75;7306664;19;129625;-35
2023/08/23 05:32:47;;;;;;;104.97;6.90;;;;;;;26.55;56.02;99758.88;7306174;19;129682;-36
2023/08/23 05:35:13;;;;;;;102.57;6.97;;;;;;;26.55;55.99;99758.06;7303586;19;129908;-35
2023/08/23 05:37:38;;;;;;;65.27;5.47;;;;;;;26.55;56.10;99758.06;7303667;19;129440;-37
2023/08/23 05:40:04;;;;;;;79.50;5.77;;;;;;;26.54;55.85;99765.13;7307076;19;130455;-38
2023/08/23 05:42:30;;;;;;;82.30;6.72;;;;;;;26.54;55.80;99772.25;7306655;19;130356;-36
2023/08/23 05:44:56;;;;;;;70.28;5.60;;;;;;;26.54;55.70;99770.41;7305748;19;129755;-36
2023/08/23 05:47:21;;;;;;;78.47;5.93;;;;;;;26.52;56.88;99768.94;7305246;19;128806;-37
2023/08/23 05:49:47;;;;;;;98.87;6.80;;;;;;;26.54;56.43;99772.25;7306838;19;129204;-37
2023/08/23 05:52:12;;;;;;;77.40;6.00;;;;;;;26.52;56.16;99769.78;7303890;19;130017;-37
2023/08/23 05:54:37;;;;;;;54.23;5.03;;;;;;;26.55;56.40;99764.16;7306165;19;128939;-38
2023/08/23 05:57:04;;;;;;;59.80;5.47;;;;;;;26.56;56.31;99771.06;7309616;19;129191;-36
2023/08/23 05:59:30;;;;;;;85.07;6.95;;;;;;;26.55;56.40;99769.44;7311402;19;129285;-37
2023/08/23 06:01:55;;;;;;;50.30;4.83;;;;;;;26.52;56.17;99769.78;7310319;19;130585;-37
2023/08/23 06:04:20;;;;;;;78.50;6.17;;;;;;;26.48;55.98;99768.44;7311122;19;129123;-36
2023/08/23 06:06:47;;;;;;;68.37;5.50;;;;;;;26.56;56.06;99778.19;7309117;19;129005;-37
2023/08/23 06:09:12;;;;;;;;;;;;;;;26.52;58.68;99768.94;7312862;19;130123;-38
2023/08/23 06:11:37;;;;;;;80.27;5.87;;;;;;;26.53;56.49;99768.78;7307647;19;129744;-38
2023/08/23 06:14:21;;;;;;;81.40;6.60;;;;;;;26.51;57.91;99773.38;7310831;19;129412;-45
2023/08/23 06:16:46;;;;;;;65.60;5.30;;;;;;;26.55;56.25;99771.25;7311122;19;129222;-40
2023/08/23 06:19:12;;;;;;;73.80;5.87;;;;;;;26.56;56.35;99776.34;7311235;19;129496;-36
2023/08/23 06:21:38;;;;;;;86.07;6.20;;;;;;;26.46;56.36;99759.06;7310650;19;130638;-37
2023/08/23 06:24:04;;;;;;;72.40;5.85;;;;;;;26.53;56.82;99776.69;7311634;19;129430;-39
2023/08/23 06:26:29;;;;;;;75.77;5.50;;;;;;;26.51;56.24;99778.66;7309241;19;129943;-38
2023/08/23 06:28:55;;;;;;;87.73;6.57;;;;;;;26.45;56.64;99763.50;7310956;19;129908;-38
2023/08/23 06:31:20;;;;;;;74.20;6.03;;;;;;;26.54;56.58;99778.31;7309409;19;130066;-38
2023/08/23 06:33:46;;;;;;;58.70;5.07;;;;;;;26.46;56.45;99759.88;7310922;19;130195;-39
2023/08/23 06:36:11;;;;;;;68.27;5.60;;;;;;;26.53;56.94;99766.13;7309927;19;129108;-38
2023/08/23 06:38:37;;;;;;;98.77;7.17;;;;;;;26.54;56.47;99764.34;7310699;19;131353;-38
2023/08/23 06:41:02;;;;;;;69.23;5.90;;;;;;;26.53;56.57;99758.22;7309746;19;129397;-40
2023/08/23 06:43:27;;;;;;;77.53;6.50;;;;;;;26.51;56.79;99760.19;7309728;19;129223;-38
2023/08/23 06:45:53;;;;;;;60.00;5.27;;;;;;;26.52;56.57;99767.13;7308585;19;129866;-37
2023/08/23 06:48:18;;;;;;;60.10;5.57;;;;;;;26.51;56.59;99760.19;7310765;19;130211;-36
2023/08/23 06:50:43;;;;;;;64.87;5.30;;;;;;;26.50;56.69;99761.19;7310190;19;129279;-38
2023/08/23 06:53:09;;;;;;;48.00;4.77;;;;;;;26.52;56.25;99761.88;7309753;19;129864;-36
2023/08/23 06:55:40;;;;;;;101.57;7.83;;;;;;;26.52;57.11;99764.50;7310445;19;130221;-35
2023/08/23 06:58:05;;;;;;;109.63;7.78;;;;;;;26.53;55.99;99766.13;7310952;19;130521;-38
2023/08/23 07:00:31;;;;;;;49.13;4.70;;;;;;;26.50;56.59;99769.13;7310713;19;129105;-39
2023/08/23 07:02:56;;;;;;;68.23;5.67;;;;;;;26.44;56.40;99761.88;7309972;19;129505;-38
2023/08/23 07:05:21;;;;;;;72.07;5.60;;;;;;;26.49;56.44;99775.38;7310935;19;129660;-40
2023/08/23 07:07:47;;;;;;;91.27;6.80;;;;;;;26.51;56.73;99776.03;7308238;19;129177;-38
2023/08/23 07:10:13;;;;;;;62.23;5.63;;;;;;;26.53;56.25;99776.69;7311366;19;130791;-37
2023/08/23 07:12:38;;;;;;;82.03;6.77;;;;;;;26.46;56.56;99774.91;7309853;19;129488;-37
2023/08/23 07:15:04;;;;;;;66.93;5.70;;;;;;;26.47;56.43;99785.28;7310969;19;129675;-39
2023/08/23 07:17:29;;;;;;;72.47;5.87;;;;;;;26.51;56.96;99781.28;7311413;19;130697;-39
2023/08/23 07:19:55;;;;;;;55.73;4.97;;;;;;;26.52;56.30;99788.22;7311322;19;129145;-38
2023/08/23 07:22:20;;;;;;;99.17;7.53;;;;;;;26.51;56.30;99789.22;7308389;19;128867;-37
2023/08/23 07:24:46;;;;;;;68.90;5.80;;;;;;;26.49;56.26;99785.94;7311681;19;129486;-37
2023/08/23 07:27:11;;;;;;;103.87;7.20;;;;;;;26.52;57.07;99787.41;7311210;19;129463;-37
2023/08/23 07:29:37;;;;;;;74.57;6.03;;;;;;;26.47;56.80;99787.91;7310814;19;130701;-38
2023/08/23 07:32:04;;;;;;;66.93;5.73;;;;;;;26.49;57.09;99796.47;7308248;19;129452;-37
2023/08/23 07:34:29;;;;;;;77.50;5.93;;;;;;;26.49;56.93;99795.66;7308704;19;129703;-37
2023/08/23 07:36:55;;;;;;;67.90;6.17;;;;;;;26.50;56.48;99792.84;7310172;19;130310;-38
2023/08/23 07:39:20;;;;;;;73.07;5.90;;;;;;;26.50;56.49;99798.13;7308301;19;130585;-33
2023/08/23 07:41:45;;;;;;;73.57;5.77;;;;;;;26.48;56.85;99789.53;7306466;19;129006;-35
2023/08/23 07:44:11;;;;;;;89.40;6.53;;;;;;;26.46;56.94;99788.88;7308361;19;129641;-42
2023/08/23 07:46:36;;;;;;;63.97;5.43;;;;;;;26.49;56.62;99791.22;7306091;19;129760;-34
2023/08/23 07:49:02;;;;;;;64.63;5.77;;;;;;;26.50;57.09;99792.84;7307799;19;129970;-37
2023/08/23 07:51:27;;;;;;;77.23;5.73;;;;;;;26.48;56.51;99786.91;7305097;19;129828;-39
2023/08/23 07:53:53;;;;;;;66.03;5.67;;;;;;;26.48;57.12;99789.53;7307589;19;130483;-36
2023/08/23 07:56:19;;;;;;;79.90;6.10;;;;;;;26.51;56.65;99783.13;7307816;19;129814;-38
2023/08/23 07:58:44;;;;;;;66.87;5.30;;;;;;;26.52;56.95;99790.88;7308372;19;129213;-35
2023/08/23 08:01:09;;;;;;;76.47;5.80;;;;;;;26.48;56.78;99789.53;7306709;19;129494;-37
2023/08/23 08:03:35;;;;;;;78.47;6.00;;;;;;;26.50;56.91;99798.13;7308521;19;129200;-38
2023/08/23 08:06:00;;;;;;;69.17;5.83;;;;;;;26.49;57.48;99788.56;7306231;19;129318;-38
2023/08/23 08:08:26;;;;;;;65.33;5.17;;;;;;;26.47;57.47;99792.34;7308150;19;130122;-38
2023/08/23 08:10:51;;;;;;;96.27;6.70;;;;;;;26.45;57.33;99787.25;7306849;19;129160;-44
2023/08/23 08:13:16;;;;;;;59.67;4.77;;;;;;;26.48;57.84;99794.81;7307212;19;129329;-38
2023/08/23 08:15:42;;;;;;;71.13;5.50;;;;;;;26.50;57.24;99792.84;7308151;19;130747;-35
2023/08/23 08:18:07;;;;;;;67.50;5.53;;;;;;;26.52;56.92;99797.94;7305016;19;129291;-33
2023/08/23 08:20:33;;;;;;;77.57;6.13;;;;;;;26.51;57.85;99798.94;7307392;19;129493;-37
2023/08/23 08:22:58;;;;;;;75.60;5.80;;;;;;;26.42;57.20;99790.22;7307233;19;129193;-37
2023/08/23 08:25:24;;;;;;;97.20;6.77;;;;;;;26.52;56.90;99790.03;7305525;19;130766;-38
2023/08/23 08:27:52;;;;;;;102.87;7.13;;;;;;;26.53;56.62;99797.78;7306245;19;129760;-36
2023/08/23 08:30:17;;;;;;;72.88;5.68;;;;;;;26.56;56.58;99797.44;7306825;19;129326;-34
2023/08/23 08:32:43;;;;;;;70.40;5.60;;;;;;;26.55;56.07;99800.25;7307008;19;129178;-38
2023/08/23 08:35:09;;;;;;;59.03;4.80;;;;;;;26.54;56.14;99804.69;7307128;19;129550;-37
2023/08/23 08:37:35;;;;;;;59.05;4.60;;;;;;;26.54;55.69;99804.69;7304887;19;129838;-36
2023/08/23 08:40:01;;;;;;;95.77;6.73;;;;;;;26.52;55.89;99806.69;7307337;19;129870;-37
2023/08/23 08:42:28;;;;;;;94.97;6.97;;;;;;;26.53;56.16;99808.31;7306896;19;129557;-35
2023/08/23 08:44:54;;;;;;;64.65;5.07;;;;;;;26.53;55.62;99810.13;7308235;19;130431;-36
2023/08/23 08:47:20;;;;;;;49.43;4.20;;;;;;;26.51;55.89;99820.84;7306475;19;129747;-35
2023/08/23 08:49:45;;;;;;;67.87;5.13;;;;;;;26.43;55.74;99802.41;7307698;19;129588;-40
2023/08/23 08:52:13;;;;;;;75.23;6.17;;;;;;;26.49;56.14;99817.56;7304188;19;128927;-37
2023/08/23 08:54:41;;;;;;;56.90;4.85;;;;;;;26.45;55.68;99821.53;7306332;19;129153;-38
2023/08/23 08:57:08;;;;;;;50.33;4.25;;;;;;;26.47;55.74;99816.91;7305606;19;129594;-37
2023/08/23 08:59:35;;;;;;;74.53;5.40;;;;;;;26.51;55.77;99815.56;7307401;19;129339;-36
2023/08/23 09:02:04;;;;;;;52.25;4.60;;;;;;;26.51;55.15;99820.84;7305206;19;129212;-35
2023/08/23 09:04:30;;;;;;;74.93;5.38;;;;;;;26.52;55.92;99817.25;7305801;19;129138;-36
2023/08/23 09:06:55;;;;;;;67.27;5.00;;;;;;;26.48;55.66;99810.63;7305089;19;130987;-34
2023/08/23 09:09:21;;;;;;;78.00;5.63;;;;;;;26.47;56.37;99808.16;7306420;19;129340;-35
2023/08/23 09:11:46;;;;;;;59.00;4.97;;;;;;;26.46;56.29;99811.81;7304858;19;129592;-38
2023/08/23 09:14:13;;;;;;;82.30;5.93;;;;;;;26.46;56.38;99817.88;7305636;19;129380;-37
2023/08/23 09:16:38;;;;;;;80.45;5.43;;;;;;;26.48;55.69;99813.28;7305188;19;131756;-37
2023/08/23 09:19:04;;;;;;;73.27;5.57;;;;;;;26.49;56.81;99816.75;7307589;19;129330;-38
2023/08/23 09:21:29;;;;;;;66.73;5.00;;;;;;;26.44;57.13;99817.25;7304768;19;129763;-35
2023/08/23 09:23:59;;;;;;;76.30;5.77;;;;;;;26.43;57.52;99817.38;7305184;19;129271;-39
2023/08/23 09:26:25;;;;;;;77.35;5.45;;;;;;;26.45;57.34;99815.41;7304000;19;129522;-39
2023/08/23 09:28:50;;;;;;;79.37;5.80;;;;;;;26.43;57.36;99812.13;7305406;19;129125;-37
2023/08/23 09:31:16;;;;;;;65.97;4.73;;;;;;;26.37;56.65;99813.63;7304062;19;129790;-37
2023/08/23 09:33:41;;;;;;;57.90;4.40;;;;;;;26.47;56.54;99821.34;7305178;19;130081;-38
2023/08/23 09:36:07;;;;;;;70.43;5.00;;;;;;;26.48;56.83;99823.00;7305135;19;131399;-40
2023/08/23 09:38:33;;;;;;;81.53;5.80;;;;;;;26.47;57.45;99824.81;7305471;19;129646;-36
2023/08/23 09:41:00;;;;;;;76.72;5.32;;;;;;;26.45;57.63;99816.25;7304349;19;129651;-37
2023/08/23 09:43:30;;;;;;;70.70;5.20;;;;;;;26.44;57.87;99813.78;7304776;19;129212;-38
2023/08/23 09:45:56;;;;;;;63.58;4.88;;;;;;;26.42;57.22;99811.31;7304627;19;130603;-37
2023/08/23 09:48:23;;;;;;;58.10;4.38;;;;;;;26.46;57.22;99812.63;7305538;19;129939;-37
2023/08/23 09:50:51;;;;;;;50.33;3.95;;;;;;;26.49;56.70;99807.03;7305039;19;129312;-36
2023/08/23 09:53:22;;;;;;;73.78;5.50;;;;;;;26.38;57.03;99796.81;7304588;19;130232;-36
2023/08/23 09:55:48;;;;;;;53.03;4.13;;;;;;;26.49;55.61;99809.66;7304406;19;130602;-36
2023/08/23 09:58:13;;;;;;;96.60;6.67;;;;;;;26.48;56.80;99815.06;7304542;19;129721;-36
2023/08/23 10:00:39;;;;;;;55.23;4.37;;;;;;;26.47;56.83;99811.63;7303893;19;129425;-35
2023/08/23 10:03:05;;;;;;;60.60;4.73;;;;;;;26.37;57.86;99797.81;7303835;19;129609;-37
2023/08/23 10:05:34;;;;;;;;;;;;;;;26.45;59.49;99805.69;7304139;19;129150;-38
2023/08/23 10:08:01;;;;;;;78.45;5.53;;;;;;;26.46;57.70;99807.34;7305598;19;129001;-37
2023/08/23 10:10:30;;;;;;;59.85;4.68;;;;;;;26.45;57.91;99808.34;7305185;19;129623;-36
2023/08/23 10:13:04;;;;;;;57.28;4.43;;;;;;;26.45;57.90;99804.88;7303932;19;129913;-34
2023/08/23 10:15:32;;;;;;;80.38;5.90;;;;;;;26.44;57.94;99793.53;7303947;19;130202;-39
2023/08/23 10:18:00;;;;;;;72.45;5.53;;;;;;;26.45;57.73;99799.59;7304022;19;129872;-39
2023/08/23 10:20:26;;;;;;;83.72;6.15;;;;;;;26.47;57.00;99793.19;7304759;19;129635;-39
2023/08/23 10:22:57;;;;;;;60.40;4.67;;;;;;;26.45;57.92;99791.69;7304076;19;129597;-38
2023/08/23 10:25:22;;;;;;;93.55;6.35;;;;;;;26.45;56.50;99791.69;7303616;19;130984;-38
2023/08/23 10:27:52;;;;;;;83.77;6.13;;;;;;;26.45;57.17;99797.78;7303288;19;129623;-39
2023/08/23 10:30:28;;;;;;;65.82;4.82;;;;;;;26.45;57.46;99792.53;7303301;19;129065;-37
2023/08/23 10:32:55;;;;;;;63.95;4.95;;;;;;;26.45;55.98;99800.44;7304746;19;130252;-37
2023/08/23 10:35:27;;;;;;;100.35;6.88;;;;;;;26.47;57.04;99798.47;7304237;19;129654;-36
2023/08/23 10:37:53;;;;;;;59.80;4.63;;;;;;;26.46;56.15;99791.50;7303766;19;129344;-35
2023/08/23 10:40:20;;;;;;;97.68;6.38;;;;;;;26.36;56.49;99769.78;7303092;19;129063;-34
2023/08/23 10:42:50;;;;;;;63.38;4.85;;;;;;;26.45;55.94;99784.59;7308205;19;130173;-36
2023/08/23 10:45:18;;;;;;;75.70;6.00;;;;;;;26.46;56.06;99780.97;7310560;19;130843;-42
2023/08/23 10:47:46;;;;;;;57.28;4.70;;;;;;;26.47;56.38;99777.34;7311596;19;129187;-36
2023/08/23 10:50:12;;;;;;;98.65;6.47;;;;;;;26.44;56.06;99777.69;7310864;19;129858;-37
2023/08/23 10:52:37;;;;;;;75.07;5.57;;;;;;;26.45;56.19;99781.97;7310013;19;130246;-38
2023/08/23 10:55:04;;;;;;;69.00;5.27;;;;;;;26.44;55.83;99772.44;7310852;19;130276;-39
2023/08/23 10:57:29;;;;;;;74.10;5.22;;;;;;;26.44;56.82;99769.78;7309289;19;129313;-36
2023/08/23 10:59:54;;;;;;;47.47;3.90;;;;;;;26.45;56.88;99776.69;7311769;19;129541;-37
2023/08/23 11:02:20;;;;;;;118.37;7.60;;;;;;;26.35;56.26;99759.41;7307525;19;130178;-39
2023/08/23 11:04:46;;;;;;;32.67;3.57;;;;;;;26.44;56.07;99769.78;7310823;19;129612;-36
2023/08/23 11:07:11;;;;;;;44.87;4.20;;;;;;;26.45;56.75;99770.59;7307829;19;129289;-34
2023/08/23 11:09:36;;;;;;;73.13;5.53;;;;;;;26.44;55.76;99761.88;7310732;19;129595;-37
2023/08/23 11:12:04;;;;;;;87.90;6.00;;;;;;;26.45;56.16;99768.78;7307974;19;129397;-35